sensor_id;sensor_type;location;lat;lon;timestamp;pressure;altitude;pressure_sealevel;temperature;humidity
23473;BME280;11909;52.516;13.564;2023-05-10T00:01:51;100693.47;;;12.48;57.34
23473;BME280;11909;52.516;13.564;2023-05-10T00:04:19;100694.28;;;12.49;56.20
23473;BME280;11909;52.516;13.564;2023-05-10T00:06:47;100696.78;;;12.45;56.72
23473;BME280;11909;52.516;13.564;2023-05-10T00:09:14;100694.00;;;12.51;56.14
23473;BME280;11909;52.516;13.564;2023-05-10T00:11:43;100696.91;;;12.59;55.51
23473;BME280;11909;52.516;13.564;2023-05-10T00:14:11;100685.66;;;12.56;55.95
23473;BME280;11909;52.516;13.564;2023-05-10T00:16:40;100687.38;;;12.52;55.76
23473;BME280;11909;52.516;13.564;2023-05-10T00:19:08;100691.09;;;12.61;55.57
23473;BME280;11909;52.516;13.564;2023-05-10T00:21:36;100680.16;;;12.56;56.32
23473;BME280;11909;52.516;13.564;2023-05-10T00:24:04;100684.69;;;12.46;56.40
23473;BME280;11909;52.516;13.564;2023-05-10T00:26:32;100680.69;;;12.33;56.76
23473;BME280;11909;52.516;13.564;2023-05-10T00:29:00;100675.97;;;12.39;56.16
23473;BME280;11909;52.516;13.564;2023-05-10T00:31:27;100675.16;;;12.39;56.29
23473;BME280;11909;52.516;13.564;2023-05-10T00:33:57;100672.09;;;12.40;55.86
23473;BME280;11909;52.516;13.564;2023-05-10T00:36:24;100666.59;;;12.40;55.76
23473;BME280;11909;52.516;13.564;2023-05-10T00:38:52;100662.13;;;12.44;55.32
23473;BME280;11909;52.516;13.564;2023-05-10T00:41:20;100663.25;;;12.43;55.44
23473;BME280;11909;52.516;13.564;2023-05-10T00:43:48;100657.53;;;12.40;55.89
23473;BME280;11909;52.516;13.564;2023-05-10T00:46:16;100654.47;;;12.41;55.83
23473;BME280;11909;52.516;13.564;2023-05-10T00:48:46;100650.06;;;12.40;55.42
23473;BME280;11909;52.516;13.564;2023-05-10T00:51:15;100656.09;;;12.42;56.07
23473;BME280;11909;52.516;13.564;2023-05-10T00:53:43;100655.81;;;12.44;55.67
23473;BME280;11909;52.516;13.564;2023-05-10T00:56:12;100647.84;;;12.42;55.70
23473;BME280;11909;52.516;13.564;2023-05-10T00:58:39;100645.69;;;12.39;55.87
23473;BME280;11909;52.516;13.564;2023-05-10T01:01:08;100644.13;;;12.33;56.22
23473;BME280;11909;52.516;13.564;2023-05-10T01:03:37;100635.94;;;12.28;56.15
23473;BME280;11909;52.516;13.564;2023-05-10T01:06:06;100636.97;;;12.32;56.15
23473;BME280;11909;52.516;13.564;2023-05-10T01:08:35;100635.47;;;12.21;56.93
23473;BME280;11909;52.516;13.564;2023-05-10T01:11:04;100627.19;;;12.21;56.46
23473;BME280;11909;52.516;13.564;2023-05-10T01:13:35;100633.25;;;12.23;56.40
23473;BME280;11909;52.516;13.564;2023-05-10T01:16:04;100625.28;;;12.21;56.94
23473;BME280;11909;52.516;13.564;2023-05-10T01:18:35;100624.75;;;12.19;56.62
23473;BME280;11909;52.516;13.564;2023-05-10T01:21:14;100626.41;;;12.20;56.42
23473;BME280;11909;52.516;13.564;2023-05-10T01:24:02;100625.41;;;12.11;56.90
23473;BME280;11909;52.516;13.564;2023-05-10T01:27:11;100621.56;;;12.12;57.49
23473;BME280;11909;52.516;13.564;2023-05-10T01:32:55;100619.44;;;12.03;57.94
23473;BME280;11909;52.516;13.564;2023-05-10T01:35:35;100606.31;;;11.95;57.89
23473;BME280;11909;52.516;13.564;2023-05-10T01:38:13;100603.31;;;11.91;58.38
23473;BME280;11909;52.516;13.564;2023-05-10T01:40:57;100601.94;;;11.94;57.83
23473;BME280;11909;52.516;13.564;2023-05-10T01:43:33;100601.69;;;11.90;58.16
23473;BME280;11909;52.516;13.564;2023-05-10T01:46:08;100608.59;;;11.88;58.34
23473;BME280;11909;52.516;13.564;2023-05-10T01:48:43;100596.00;;;11.82;58.16
23473;BME280;11909;52.516;13.564;2023-05-10T01:51:18;100608.19;;;11.75;58.38
23473;BME280;11909;52.516;13.564;2023-05-10T01:53:49;100608.38;;;11.84;58.40
23473;BME280;11909;52.516;13.564;2023-05-10T01:56:20;100607.59;;;11.79;58.48
23473;BME280;11909;52.516;13.564;2023-05-10T01:58:51;100604.06;;;11.73;58.59
23473;BME280;11909;52.516;13.564;2023-05-10T02:01:21;100603.28;;;11.72;58.55
23473;BME280;11909;52.516;13.564;2023-05-10T02:03:51;100600.06;;;11.65;58.72
23473;BME280;11909;52.516;13.564;2023-05-10T02:06:20;100604.66;;;11.70;58.50
23473;BME280;11909;52.516;13.564;2023-05-10T02:08:49;100590.72;;;11.61;59.22
23473;BME280;11909;52.516;13.564;2023-05-10T02:11:19;100594.66;;;11.55;58.94
23473;BME280;11909;52.516;13.564;2023-05-10T02:13:50;100597.94;;;11.57;58.64
23473;BME280;11909;52.516;13.564;2023-05-10T02:16:21;100591.84;;;11.60;58.68
23473;BME280;11909;52.516;13.564;2023-05-10T02:18:53;100597.13;;;11.56;58.78
23473;BME280;11909;52.516;13.564;2023-05-10T02:21:22;100594.41;;;11.51;59.29
23473;BME280;11909;52.516;13.564;2023-05-10T02:23:52;100590.59;;;11.47;59.41
23473;BME280;11909;52.516;13.564;2023-05-10T02:26:23;100596.94;;;11.47;59.24
23473;BME280;11909;52.516;13.564;2023-05-10T02:28:53;100591.97;;;11.50;59.29
23473;BME280;11909;52.516;13.564;2023-05-10T02:31:22;100586.53;;;11.44;59.80
23473;BME280;11909;52.516;13.564;2023-05-10T02:33:52;100584.63;;;11.40;59.35
23473;BME280;11909;52.516;13.564;2023-05-10T02:36:22;100586.00;;;11.42;59.04
23473;BME280;11909;52.516;13.564;2023-05-10T02:38:51;100587.63;;;11.43;58.65
23473;BME280;11909;52.516;13.564;2023-05-10T02:41:20;100587.09;;;11.41;58.80
23473;BME280;11909;52.516;13.564;2023-05-10T02:43:51;100585.75;;;11.39;59.02
23473;BME280;11909;52.516;13.564;2023-05-10T02:46:23;100580.19;;;11.44;58.28
23473;BME280;11909;52.516;13.564;2023-05-10T02:48:52;100583.59;;;11.36;59.17
23473;BME280;11909;52.516;13.564;2023-05-10T02:51:25;100579.94;;;11.40;59.04
23473;BME280;11909;52.516;13.564;2023-05-10T02:53:57;100588.56;;;11.33;58.65
23473;BME280;11909;52.516;13.564;2023-05-10T02:56:31;100589.34;;;11.34;58.76
23473;BME280;11909;52.516;13.564;2023-05-10T02:59:00;100580.41;;;11.23;59.54
23473;BME280;11909;52.516;13.564;2023-05-10T03:01:29;100582.03;;;11.24;59.23
23473;BME280;11909;52.516;13.564;2023-05-10T03:03:58;100580.97;;;11.20;59.52
23473;BME280;11909;52.516;13.564;2023-05-10T03:06:26;100578.81;;;11.17;59.56
23473;BME280;11909;52.516;13.564;2023-05-10T03:08:55;100583.47;;;11.16;59.79
23473;BME280;11909;52.516;13.564;2023-05-10T03:11:31;100578.56;;;11.13;59.66
23473;BME280;11909;52.516;13.564;2023-05-10T03:14:07;100582.72;;;11.11;59.47
23473;BME280;11909;52.516;13.564;2023-05-10T03:16:41;100578.06;;;11.06;60.00
23473;BME280;11909;52.516;13.564;2023-05-10T03:19:17;100587.16;;;11.01;60.15
23473;BME280;11909;52.516;13.564;2023-05-10T03:21:51;100573.69;;;11.05;60.04
23473;BME280;11909;52.516;13.564;2023-05-10T03:24:23;100570.63;;;11.07;59.76
23473;BME280;11909;52.516;13.564;2023-05-10T03:26:53;100580.28;;;11.04;59.96
23473;BME280;11909;52.516;13.564;2023-05-10T03:29:25;100576.44;;;11.05;59.52
23473;BME280;11909;52.516;13.564;2023-05-10T03:31:53;100583.88;;;10.99;60.17
23473;BME280;11909;52.516;13.564;2023-05-10T03:34:25;100579.50;;;10.98;59.99
23473;BME280;11909;52.516;13.564;2023-05-10T03:36:53;100579.81;;;10.97;60.06
23473;BME280;11909;52.516;13.564;2023-05-10T03:39:21;100575.44;;;10.96;60.09
23473;BME280;11909;52.516;13.564;2023-05-10T03:41:48;100571.56;;;10.97;60.53
23473;BME280;11909;52.516;13.564;2023-05-10T03:44:17;100567.22;;;10.90;60.33
23473;BME280;11909;52.516;13.564;2023-05-10T03:46:45;100565.56;;;10.89;60.12
23473;BME280;11909;52.516;13.564;2023-05-10T03:49:12;100564.97;;;10.98;60.15
23473;BME280;11909;52.516;13.564;2023-05-10T03:51:42;100573.81;;;10.89;60.17
23473;BME280;11909;52.516;13.564;2023-05-10T03:54:09;100573.81;;;10.89;61.03
23473;BME280;11909;52.516;13.564;2023-05-10T03:56:37;100563.66;;;10.90;60.43
23473;BME280;11909;52.516;13.564;2023-05-10T03:59:05;100573.84;;;10.84;60.38
23473;BME280;11909;52.516;13.564;2023-05-10T04:01:35;100569.19;;;10.85;60.87
23473;BME280;11909;52.516;13.564;2023-05-10T04:04:03;100570.59;;;10.82;60.54
23473;BME280;11909;52.516;13.564;2023-05-10T04:06:31;100569.19;;;10.85;60.19
23473;BME280;11909;52.516;13.564;2023-05-10T04:09:00;100567.25;;;10.85;60.25
23473;BME280;11909;52.516;13.564;2023-05-10T04:11:30;100568.41;;;10.79;60.25
23473;BME280;11909;52.516;13.564;2023-05-10T04:13:58;100565.31;;;10.91;60.22
23473;BME280;11909;52.516;13.564;2023-05-10T04:16:26;100570.25;;;10.89;60.58
23473;BME280;11909;52.516;13.564;2023-05-10T04:18:54;100569.94;;;10.96;60.58
23473;BME280;11909;52.516;13.564;2023-05-10T04:21:22;100551.84;;;10.89;60.20
23473;BME280;11909;52.516;13.564;2023-05-10T04:23:49;100556.75;;;10.93;60.20
23473;BME280;11909;52.516;13.564;2023-05-10T04:26:19;100553.22;;;10.92;60.17
23473;BME280;11909;52.516;13.564;2023-05-10T04:28:46;100557.28;;;11.00;60.51
23473;BME280;11909;52.516;13.564;2023-05-10T04:31:15;100555.66;;;10.94;60.52
23473;BME280;11909;52.516;13.564;2023-05-10T04:33:42;100559.50;;;10.93;60.64
23473;BME280;11909;52.516;13.564;2023-05-10T04:36:10;100559.22;;;10.94;61.14
23473;BME280;11909;52.516;13.564;2023-05-10T04:38:38;100555.09;;;10.97;60.99
23473;BME280;11909;52.516;13.564;2023-05-10T04:41:07;100560.34;;;10.93;61.61
23473;BME280;11909;52.516;13.564;2023-05-10T04:43:37;100555.63;;;10.99;61.67
23473;BME280;11909;52.516;13.564;2023-05-10T04:46:05;100556.38;;;11.04;61.04
23473;BME280;11909;52.516;13.564;2023-05-10T04:48:33;100552.78;;;11.09;60.37
23473;BME280;11909;52.516;13.564;2023-05-10T04:51:02;100557.47;;;11.09;60.80
23473;BME280;11909;52.516;13.564;2023-05-10T04:53:31;100554.09;;;11.17;60.92
23473;BME280;11909;52.516;13.564;2023-05-10T04:55:59;100550.81;;;11.15;61.68
23473;BME280;11909;52.516;13.564;2023-05-10T04:58:27;100560.44;;;11.12;61.60
23473;BME280;11909;52.516;13.564;2023-05-10T05:00:56;100544.78;;;11.13;61.90
23473;BME280;11909;52.516;13.564;2023-05-10T05:03:24;100550.50;;;11.16;60.61
23473;BME280;11909;52.516;13.564;2023-05-10T05:05:52;100555.97;;;11.22;60.46
23473;BME280;11909;52.516;13.564;2023-05-10T05:08:21;100562.22;;;11.27;61.78
23473;BME280;11909;52.516;13.564;2023-05-10T05:10:50;100553.38;;;11.36;61.28
23473;BME280;11909;52.516;13.564;2023-05-10T05:13:18;100550.31;;;11.37;61.01
23473;BME280;11909;52.516;13.564;2023-05-10T05:15:46;100553.59;;;11.39;60.74
23473;BME280;11909;52.516;13.564;2023-05-10T05:18:15;100542.50;;;11.50;61.18
23473;BME280;11909;52.516;13.564;2023-05-10T05:20:43;100551.50;;;11.55;60.99
23473;BME280;11909;52.516;13.564;2023-05-10T05:23:11;100544.53;;;11.63;60.15
23473;BME280;11909;52.516;13.564;2023-05-10T05:25:38;100546.06;;;11.74;60.36
23473;BME280;11909;52.516;13.564;2023-05-10T05:28:06;100550.44;;;11.75;59.39
23473;BME280;11909;52.516;13.564;2023-05-10T05:30:34;100545.38;;;11.88;59.03
23473;BME280;11909;52.516;13.564;2023-05-10T05:33:02;100550.19;;;11.96;59.76
23473;BME280;11909;52.516;13.564;2023-05-10T05:35:31;100552.63;;;11.98;58.83
23473;BME280;11909;52.516;13.564;2023-05-10T05:37:59;100543.28;;;11.99;58.64
23473;BME280;11909;52.516;13.564;2023-05-10T05:40:27;100549.50;;;12.10;59.48
23473;BME280;11909;52.516;13.564;2023-05-10T05:42:55;100552.47;;;12.13;58.35
23473;BME280;11909;52.516;13.564;2023-05-10T05:45:23;100542.50;;;12.17;58.38
23473;BME280;11909;52.516;13.564;2023-05-10T05:47:51;100544.03;;;12.29;58.46
23473;BME280;11909;52.516;13.564;2023-05-10T05:50:18;100543.34;;;12.37;56.71
23473;BME280;11909;52.516;13.564;2023-05-10T05:52:48;100539.72;;;12.42;58.73
23473;BME280;11909;52.516;13.564;2023-05-10T05:55:15;100541.31;;;12.62;55.76
23473;BME280;11909;52.516;13.564;2023-05-10T05:57:44;100526.53;;;12.58;57.33
23473;BME280;11909;52.516;13.564;2023-05-10T06:00:13;100535.28;;;12.60;57.03
23473;BME280;11909;52.516;13.564;2023-05-10T06:02:41;100537.06;;;12.70;56.45
23473;BME280;11909;52.516;13.564;2023-05-10T06:05:09;100540.06;;;12.73;55.65
23473;BME280;11909;52.516;13.564;2023-05-10T06:07:37;100536.38;;;12.78;57.12
23473;BME280;11909;52.516;13.564;2023-05-10T06:10:08;100539.06;;;12.83;56.74
23473;BME280;11909;52.516;13.564;2023-05-10T06:12:36;100536.75;;;12.90;57.90
23473;BME280;11909;52.516;13.564;2023-05-10T06:15:04;100543.28;;;12.95;55.36
23473;BME280;11909;52.516;13.564;2023-05-10T06:17:32;100543.19;;;13.00;56.27
23473;BME280;11909;52.516;13.564;2023-05-10T06:20:00;100536.69;;;13.10;56.54
23473;BME280;11909;52.516;13.564;2023-05-10T06:22:28;100546.41;;;13.21;54.54
23473;BME280;11909;52.516;13.564;2023-05-10T06:24:56;100543.97;;;13.33;54.44
23473;BME280;11909;52.516;13.564;2023-05-10T06:27:25;100539.06;;;13.30;55.63
23473;BME280;11909;52.516;13.564;2023-05-10T06:29:53;100545.09;;;13.32;55.21
23473;BME280;11909;52.516;13.564;2023-05-10T06:32:34;100553.47;;;13.41;53.96
23473;BME280;11909;52.516;13.564;2023-05-10T06:35:03;100544.22;;;13.51;54.81
23473;BME280;11909;52.516;13.564;2023-05-10T06:37:31;100547.91;;;13.60;53.60
23473;BME280;11909;52.516;13.564;2023-05-10T06:39:59;100549.84;;;13.60;54.27
23473;BME280;11909;52.516;13.564;2023-05-10T06:42:28;100553.84;;;13.68;54.15
23473;BME280;11909;52.516;13.564;2023-05-10T06:44:56;100535.94;;;13.79;53.61
23473;BME280;11909;52.516;13.564;2023-05-10T06:47:24;100538.91;;;13.83;54.41
23473;BME280;11909;52.516;13.564;2023-05-10T06:49:52;100539.94;;;13.87;53.29
23473;BME280;11909;52.516;13.564;2023-05-10T06:52:20;100543.09;;;13.94;53.26
23473;BME280;11909;52.516;13.564;2023-05-10T06:54:47;100542.41;;;13.88;54.56
23473;BME280;11909;52.516;13.564;2023-05-10T06:57:16;100547.91;;;14.02;52.85
23473;BME280;11909;52.516;13.564;2023-05-10T06:59:58;100546.16;;;14.07;52.92
23473;BME280;11909;52.516;13.564;2023-05-10T07:02:26;100531.00;;;14.04;54.06
23473;BME280;11909;52.516;13.564;2023-05-10T07:04:54;100535.19;;;14.15;52.96
23473;BME280;11909;52.516;13.564;2023-05-10T07:07:25;100541.44;;;14.21;52.46
23473;BME280;11909;52.516;13.564;2023-05-10T07:09:53;100531.56;;;14.29;52.78
23473;BME280;11909;52.516;13.564;2023-05-10T07:12:23;100544.06;;;14.26;52.37
23473;BME280;11909;52.516;13.564;2023-05-10T07:14:51;100539.44;;;14.36;52.63
23473;BME280;11909;52.516;13.564;2023-05-10T07:17:20;100533.09;;;14.35;52.46
23473;BME280;11909;52.516;13.564;2023-05-10T07:19:48;100532.06;;;14.45;52.12
23473;BME280;11909;52.516;13.564;2023-05-10T07:22:16;100530.59;;;14.47;52.98
23473;BME280;11909;52.516;13.564;2023-05-10T07:24:44;100530.66;;;14.56;52.54
23473;BME280;11909;52.516;13.564;2023-05-10T07:27:12;100535.97;;;14.67;52.82
23473;BME280;11909;52.516;13.564;2023-05-10T07:29:40;100538.78;;;14.75;51.84
23473;BME280;11909;52.516;13.564;2023-05-10T07:32:08;100540.75;;;14.75;51.65
23473;BME280;11909;52.516;13.564;2023-05-10T07:34:37;100537.00;;;14.94;51.03
23473;BME280;11909;52.516;13.564;2023-05-10T07:37:05;100541.25;;;15.00;50.59
23473;BME280;11909;52.516;13.564;2023-05-10T07:39:33;100540.31;;;15.04;50.71
23473;BME280;11909;52.516;13.564;2023-05-10T07:42:01;100541.94;;;15.05;50.75
23473;BME280;11909;52.516;13.564;2023-05-10T07:44:29;100546.84;;;15.09;51.66
23473;BME280;11909;52.516;13.564;2023-05-10T07:46:57;100546.44;;;15.24;52.53
23473;BME280;11909;52.516;13.564;2023-05-10T07:49:25;100532.63;;;15.33;51.22
23473;BME280;11909;52.516;13.564;2023-05-10T07:51:54;100542.28;;;15.44;50.49
23473;BME280;11909;52.516;13.564;2023-05-10T07:54:22;100544.06;;;15.40;51.84
23473;BME280;11909;52.516;13.564;2023-05-10T07:56:51;100531.44;;;15.48;51.57
23473;BME280;11909;52.516;13.564;2023-05-10T07:59:19;100541.06;;;15.59;50.63
23473;BME280;11909;52.516;13.564;2023-05-10T08:01:48;100539.66;;;15.80;49.49
23473;BME280;11909;52.516;13.564;2023-05-10T08:04:16;100534.16;;;15.88;49.04
23473;BME280;11909;52.516;13.564;2023-05-10T08:06:43;100528.63;;;15.88;50.73
23473;BME280;11909;52.516;13.564;2023-05-10T08:09:13;100528.50;;;15.94;50.12
23473;BME280;11909;52.516;13.564;2023-05-10T08:11:41;100536.16;;;15.97;49.93
23473;BME280;11909;52.516;13.564;2023-05-10T08:14:09;100532.41;;;16.10;50.96
23473;BME280;11909;52.516;13.564;2023-05-10T08:16:37;100542.22;;;16.25;49.44
23473;BME280;11909;52.516;13.564;2023-05-10T08:19:05;100539.13;;;16.36;48.32
23473;BME280;11909;52.516;13.564;2023-05-10T08:21:33;100542.88;;;16.48;47.98
23473;BME280;11909;52.516;13.564;2023-05-10T08:24:02;100542.22;;;16.60;48.42
23473;BME280;11909;52.516;13.564;2023-05-10T08:26:32;100534.56;;;16.75;49.02
23473;BME280;11909;52.516;13.564;2023-05-10T08:29:00;100533.06;;;16.95;47.71
23473;BME280;11909;52.516;13.564;2023-05-10T08:31:28;100532.44;;;16.98;47.49
23473;BME280;11909;52.516;13.564;2023-05-10T08:33:56;100528.19;;;17.10;47.37
23473;BME280;11909;52.516;13.564;2023-05-10T08:36:23;100535.81;;;17.22;46.32
23473;BME280;11909;52.516;13.564;2023-05-10T08:38:53;100532.38;;;17.25;48.51
23473;BME280;11909;52.516;13.564;2023-05-10T08:41:21;100534.88;;;17.56;46.89
23473;BME280;11909;52.516;13.564;2023-05-10T08:43:52;100537.66;;;17.56;45.16
23473;BME280;11909;52.516;13.564;2023-05-10T08:46:21;100524.81;;;17.73;45.80
23473;BME280;11909;52.516;13.564;2023-05-10T08:48:51;100537.25;;;17.67;44.32
23473;BME280;11909;52.516;13.564;2023-05-10T08:51:20;100530.53;;;17.76;44.85
23473;BME280;11909;52.516;13.564;2023-05-10T08:53:50;100527.75;;;17.76;44.93
23473;BME280;11909;52.516;13.564;2023-05-10T08:56:19;100529.66;;;17.85;46.13
23473;BME280;11909;52.516;13.564;2023-05-10T08:58:47;100532.84;;;17.96;44.76
23473;BME280;11909;52.516;13.564;2023-05-10T09:01:18;100532.25;;;18.20;44.46
23473;BME280;11909;52.516;13.564;2023-05-10T09:03:46;100538.22;;;18.31;43.41
23473;BME280;11909;52.516;13.564;2023-05-10T09:06:15;100531.66;;;18.36;45.31
23473;BME280;11909;52.516;13.564;2023-05-10T09:08:43;100543.88;;;18.56;44.20
23473;BME280;11909;52.516;13.564;2023-05-10T09:11:12;100533.31;;;18.70;43.99
23473;BME280;11909;52.516;13.564;2023-05-10T09:13:41;100526.38;;;18.76;45.27
23473;BME280;11909;52.516;13.564;2023-05-10T09:16:09;100541.59;;;18.91;43.57
23473;BME280;11909;52.516;13.564;2023-05-10T09:18:49;100527.28;;;19.02;43.80
23473;BME280;11909;52.516;13.564;2023-05-10T09:21:17;100532.19;;;19.05;44.68
23473;BME280;11909;52.516;13.564;2023-05-10T09:23:47;100536.50;;;19.15;44.82
23473;BME280;11909;52.516;13.564;2023-05-10T09:26:16;100554.41;;;19.39;41.31
23473;BME280;11909;52.516;13.564;2023-05-10T09:28:51;100554.34;;;19.26;41.28
23473;BME280;11909;52.516;13.564;2023-05-10T09:31:19;100548.56;;;19.19;41.80
23473;BME280;11909;52.516;13.564;2023-05-10T09:33:50;100553.19;;;19.27;41.83
23473;BME280;11909;52.516;13.564;2023-05-10T09:36:17;100554.59;;;19.33;42.16
23473;BME280;11909;52.516;13.564;2023-05-10T09:38:46;100547.19;;;19.38;41.50
23473;BME280;11909;52.516;13.564;2023-05-10T09:41:16;100552.78;;;19.50;42.01
23473;BME280;11909;52.516;13.564;2023-05-10T09:43:44;100550.47;;;19.65;42.12
23473;BME280;11909;52.516;13.564;2023-05-10T09:46:13;100561.16;;;19.87;40.95
23473;BME280;11909;52.516;13.564;2023-05-10T09:48:42;100553.59;;;19.75;41.36
23473;BME280;11909;52.516;13.564;2023-05-10T09:51:18;100550.47;;;19.89;40.84
23473;BME280;11909;52.516;13.564;2023-05-10T09:53:46;100547.56;;;20.11;43.03
23473;BME280;11909;52.516;13.564;2023-05-10T09:56:32;100548.34;;;20.36;41.67
23473;BME280;11909;52.516;13.564;2023-05-10T09:59:04;100556.19;;;20.46;39.76
23473;BME280;11909;52.516;13.564;2023-05-10T10:01:33;100556.31;;;20.50;39.28
23473;BME280;11909;52.516;13.564;2023-05-10T10:04:03;100553.78;;;20.45;39.97
23473;BME280;11909;52.516;13.564;2023-05-10T10:06:36;100547.13;;;20.49;42.43
23473;BME280;11909;52.516;13.564;2023-05-10T10:09:05;100548.75;;;20.79;40.37
23473;BME280;11909;52.516;13.564;2023-05-10T10:11:35;100557.00;;;20.75;39.16
23473;BME280;11909;52.516;13.564;2023-05-10T10:14:03;100553.31;;;20.84;39.02
23473;BME280;11909;52.516;13.564;2023-05-10T10:16:32;100557.00;;;20.88;38.53
23473;BME280;11909;52.516;13.564;2023-05-10T10:19:00;100546.97;;;20.99;38.11
23473;BME280;11909;52.516;13.564;2023-05-10T10:21:28;100542.19;;;21.00;39.87
23473;BME280;11909;52.516;13.564;2023-05-10T10:23:59;100543.19;;;21.08;40.59
23473;BME280;11909;52.516;13.564;2023-05-10T10:26:27;100534.66;;;21.16;42.03
23473;BME280;11909;52.516;13.564;2023-05-10T10:29:01;100532.50;;;21.26;39.92
23473;BME280;11909;52.516;13.564;2023-05-10T10:31:39;100538.78;;;21.39;38.73
23473;BME280;11909;52.516;13.564;2023-05-10T10:34:09;100529.06;;;21.48;39.43
23473;BME280;11909;52.516;13.564;2023-05-10T10:36:40;100535.03;;;21.63;38.36
23473;BME280;11909;52.516;13.564;2023-05-10T10:39:11;100527.38;;;21.60;39.08
23473;BME280;11909;52.516;13.564;2023-05-10T10:41:40;100533.41;;;21.62;37.06
23473;BME280;11909;52.516;13.564;2023-05-10T10:44:23;100535.19;;;21.54;38.12
23473;BME280;11909;52.516;13.564;2023-05-10T10:47:22;100532.06;;;21.72;40.35
23473;BME280;11909;52.516;13.564;2023-05-10T10:50:04;100533.69;;;21.73;40.34
23473;BME280;11909;52.516;13.564;2023-05-10T10:52:34;100536.56;;;21.76;37.50
23473;BME280;11909;52.516;13.564;2023-05-10T10:55:06;100544.38;;;21.55;35.93
23473;BME280;11909;52.516;13.564;2023-05-10T10:57:43;100539.72;;;21.75;37.08
23473;BME280;11909;52.516;13.564;2023-05-10T11:00:24;100542.38;;;21.87;36.30
23473;BME280;11909;52.516;13.564;2023-05-10T11:02:53;100552.09;;;22.10;36.37
23473;BME280;11909;52.516;13.564;2023-05-10T11:05:23;100537.09;;;21.82;36.33
23473;BME280;11909;52.516;13.564;2023-05-10T11:07:51;100531.66;;;21.89;40.08
23473;BME280;11909;52.516;13.564;2023-05-10T11:10:21;100548.66;;;22.00;34.81
23473;BME280;11909;52.516;13.564;2023-05-10T11:12:52;100551.72;;;22.11;35.32
23473;BME280;11909;52.516;13.564;2023-05-10T11:15:28;100539.25;;;22.25;35.94
23473;BME280;11909;52.516;13.564;2023-05-10T11:17:58;100540.00;;;22.41;35.68
23473;BME280;11909;52.516;13.564;2023-05-10T11:20:27;100544.00;;;22.04;34.99
23473;BME280;11909;52.516;13.564;2023-05-10T11:23:11;100534.44;;;22.25;35.84
23473;BME280;11909;52.516;13.564;2023-05-10T11:25:44;100537.84;;;22.34;35.46
23473;BME280;11909;52.516;13.564;2023-05-10T11:28:12;100534.72;;;22.56;34.78
23473;BME280;11909;52.516;13.564;2023-05-10T11:30:43;100533.75;;;22.68;36.48
23473;BME280;11909;52.516;13.564;2023-05-10T11:33:15;100543.31;;;22.27;35.00
23473;BME280;11909;52.516;13.564;2023-05-10T11:35:44;100550.50;;;22.64;36.35
23473;BME280;11909;52.516;13.564;2023-05-10T11:38:13;100536.28;;;22.73;36.37
23473;BME280;11909;52.516;13.564;2023-05-10T11:40:43;100527.72;;;22.85;37.71
23473;BME280;11909;52.516;13.564;2023-05-10T11:43:11;100528.31;;;22.75;34.21
23473;BME280;11909;52.516;13.564;2023-05-10T11:45:40;100541.13;;;22.96;33.93
23473;BME280;11909;52.516;13.564;2023-05-10T11:48:08;100534.78;;;22.99;35.50
23473;BME280;11909;52.516;13.564;2023-05-10T11:50:36;100542.13;;;22.87;34.22
23473;BME280;11909;52.516;13.564;2023-05-10T11:53:04;100532.41;;;23.01;35.54
23473;BME280;11909;52.516;13.564;2023-05-10T11:55:33;100536.94;;;23.09;33.43
23473;BME280;11909;52.516;13.564;2023-05-10T11:58:02;100529.75;;;23.08;35.38
23473;BME280;11909;52.516;13.564;2023-05-10T12:00:31;100540.16;;;23.31;34.16
23473;BME280;11909;52.516;13.564;2023-05-10T12:03:00;100543.47;;;23.37;32.71
23473;BME280;11909;52.516;13.564;2023-05-10T12:05:28;100535.00;;;23.33;32.85
23473;BME280;11909;52.516;13.564;2023-05-10T12:08:12;100550.81;;;23.45;34.52
23473;BME280;11909;52.516;13.564;2023-05-10T12:10:41;100528.16;;;23.54;36.05
23473;BME280;11909;52.516;13.564;2023-05-10T12:13:14;100528.25;;;23.61;35.81
23473;BME280;11909;52.516;13.564;2023-05-10T12:15:42;100533.59;;;23.70;32.25
23473;BME280;11909;52.516;13.564;2023-05-10T12:18:11;100540.78;;;23.94;34.99
23473;BME280;11909;52.516;13.564;2023-05-10T12:20:39;100539.16;;;23.93;33.67
23473;BME280;11909;52.516;13.564;2023-05-10T12:23:08;100544.13;;;24.03;32.91
23473;BME280;11909;52.516;13.564;2023-05-10T12:25:37;100530.97;;;24.08;36.60
23473;BME280;11909;52.516;13.564;2023-05-10T12:28:08;100520.41;;;24.24;36.16
23473;BME280;11909;52.516;13.564;2023-05-10T12:30:38;100538.19;;;24.36;32.99
23473;BME280;11909;52.516;13.564;2023-05-10T12:33:10;100546.47;;;24.59;31.61
23473;BME280;11909;52.516;13.564;2023-05-10T12:35:46;100546.41;;;24.52;32.59
23473;BME280;11909;52.516;13.564;2023-05-10T12:38:25;100551.94;;;24.48;29.34
23473;BME280;11909;52.516;13.564;2023-05-10T12:40:54;100554.81;;;24.21;29.47
23473;BME280;11909;52.516;13.564;2023-05-10T12:43:22;100550.94;;;24.02;29.36
23473;BME280;11909;52.516;13.564;2023-05-10T12:45:51;100540.63;;;24.10;30.73
23473;BME280;11909;52.516;13.564;2023-05-10T12:48:20;100528.94;;;24.35;33.84
23473;BME280;11909;52.516;13.564;2023-05-10T12:50:48;100535.19;;;24.52;33.12
23473;BME280;11909;52.516;13.564;2023-05-10T12:53:16;100554.53;;;24.60;30.25
23473;BME280;11909;52.516;13.564;2023-05-10T12:55:44;100560.22;;;24.37;29.29
23473;BME280;11909;52.516;13.564;2023-05-10T12:58:12;100554.09;;;24.58;29.00